Time;durP1;ratioP1;P1;durP2;ratioP2;P2;SDS_P1;SDS_P2;PMS_P1;PMS_P2;Temp;Humidity;BMP_temperature;BMP_pressure;BME280_temperature;BME280_humidity;BME280_pressure;Samples;Min_cycle;Max_cycle;Signal;HPM_P1;HPM_P2
2022/06/06 00:00:20;;;;;;;14.52;4.18;;;24.50;96.70;;;;;;5031655;28;20136;-81
2022/06/06 00:02:49;;;;;;;15.93;4.00;;;24.40;96.70;;;;;;5039347;28;20400;-81
2022/06/06 00:05:18;;;;;;;16.48;4.03;;;24.30;96.70;;;;;;5035120;28;20053;-80
2022/06/06 00:07:46;;;;;;;14.50;3.95;;;24.30;96.70;;;;;;5040530;28;20043;-80
2022/06/06 00:10:14;;;;;;;13.55;3.58;;;24.20;96.70;;;;;;5034551;28;20052;-82
2022/06/06 00:12:43;;;;;;;12.50;3.83;;;24.10;96.70;;;;;;5038477;28;20052;-81
2022/06/06 00:15:14;;;;;;;14.23;3.63;;;24.20;96.70;;;;;;5032543;28;20064;-81
2022/06/06 00:17:42;;;;;;;12.57;3.92;;;24.10;96.70;;;;;;5039227;28;20131;-80
2022/06/06 00:20:10;;;;;;;13.43;4.03;;;24.00;96.70;;;;;;5042069;28;20058;-81
2022/06/06 00:22:38;;;;;;;14.15;4.28;;;24.00;96.70;;;;;;5043848;28;20053;-81
2022/06/06 00:25:07;;;;;;;15.88;5.03;;;24.10;96.70;;;;;;5035658;28;20045;-81
2022/06/06 00:27:35;;;;;;;14.63;4.75;;;24.00;96.70;;;;;;5046298;28;20033;-82
2022/06/06 00:30:05;;;;;;;15.57;4.47;;;23.90;96.70;;;;;;5040319;28;20048;-81
2022/06/06 00:35:20;;;;;;;20.65;4.35;;;24.00;96.70;;;;;;5040260;28;20644;-81
2022/06/06 00:37:48;;;;;;;13.52;4.30;;;24.10;96.70;;;;;;5032414;28;20037;-81
2022/06/06 00:40:18;;;;;;;17.58;4.60;;;24.10;96.70;;;;;;5035143;28;20072;-81
2022/06/06 00:42:46;;;;;;;15.23;4.25;;;24.00;96.70;;;;;;5032431;28;20699;-81
2022/06/06 00:45:31;;;;;;;12.70;4.30;;;24.00;96.70;;;;;;5041113;28;20037;-80
2022/06/06 00:48:19;;;;;;;11.43;3.83;;;24.00;96.70;;;;;;5041630;28;20041;-80
2022/06/06 00:50:56;;;;;;;12.23;3.92;;;24.00;96.70;;;;;;5040527;28;20045;-80
2022/06/06 00:53:29;;;;;;;14.77;4.07;;;23.90;96.70;;;;;;5026001;28;20076;-80
2022/06/06 00:56:02;;;;;;;18.73;4.13;;;23.90;96.70;;;;;;5039773;28;20055;-79
2022/06/06 00:58:31;;;;;;;13.32;4.07;;;23.90;96.70;;;;;;5025053;28;20750;-80
2022/06/06 01:01:01;;;;;;;15.32;4.40;;;23.90;96.70;;;;;;5037812;28;20400;-80
2022/06/06 01:03:30;;;;;;;11.13;4.22;;;24.00;96.70;;;;;;5038056;28;20041;-80
2022/06/06 01:05:59;;;;;;;13.15;3.92;;;23.90;96.70;;;;;;5041330;28;20099;-80
2022/06/06 01:08:28;;;;;;;9.27;4.05;;;23.80;96.70;;;;;;5042692;28;20107;-81
2022/06/06 01:10:56;;;;;;;10.93;3.70;;;23.60;96.70;;;;;;5037518;28;20048;-80
2022/06/06 01:13:24;;;;;;;11.85;3.72;;;23.60;96.70;;;;;;5038177;28;20079;-79
2022/06/06 01:16:08;;;;;;;13.48;3.63;;;23.60;96.70;;;;;;5022387;28;20053;-80
2022/06/06 01:18:48;;;;;;;11.27;3.72;;;23.50;96.70;;;;;;5038346;28;20075;-80
2022/06/06 01:21:47;;;;;;;11.02;3.03;;;23.50;96.70;;;;;;5032594;28;20037;-80
2022/06/06 01:24:37;;;;;;;11.05;3.72;;;23.50;96.70;;;;;;5041831;28;20079;-80
2022/06/06 01:27:33;;;;;;;12.70;3.63;;;23.50;96.70;;;;;;5033289;28;20049;-79
2022/06/06 01:30:08;;;;;;;8.68;3.05;;;23.40;96.70;;;;;;5041459;28;20033;-81
2022/06/06 01:32:41;;;;;;;13.75;4.07;;;23.50;96.70;;;;;;5024967;28;20056;-81
2022/06/06 01:35:09;;;;;;;13.60;3.72;;;23.60;96.70;;;;;;5048637;28;20045;-81
2022/06/06 01:37:40;;;;;;;13.05;3.42;;;23.70;96.70;;;;;;5044919;28;20040;-81
2022/06/06 01:40:12;;;;;;;12.48;3.72;;;23.60;96.70;;;;;;5039715;28;20103;-81
2022/06/06 01:42:50;;;;;;;14.70;3.95;;;23.60;96.70;;;;;;5042400;28;20064;-81
2022/06/06 01:45:27;;;;;;;11.85;3.83;;;23.50;96.70;;;;;;5039575;28;20050;-81
2022/06/06 01:48:01;;;;;;;8.40;2.80;;;23.40;96.70;;;;;;5045582;28;20056;-81
2022/06/06 01:50:30;;;;;;;11.00;3.45;;;23.40;96.70;;;;;;5028996;28;20080;-81
2022/06/06 01:53:01;;;;;;;12.63;3.40;;;23.30;96.70;;;;;;5045679;28;20055;-81
2022/06/06 01:55:32;;;;;;;12.25;3.60;;;23.20;96.70;;;;;;5038466;28;20128;-81
2022/06/06 01:58:03;;;;;;;9.52;3.67;;;23.30;96.70;;;;;;5036746;28;20136;-81
2022/06/06 02:00:34;;;;;;;17.77;4.10;;;23.30;96.70;;;;;;5035265;28;20056;-81
2022/06/06 02:03:02;;;;;;;16.30;3.40;;;23.30;96.70;;;;;;5044332;28;20049;-80
2022/06/06 02:05:30;;;;;;;10.55;4.05;;;23.40;96.70;;;;;;5043826;28;20379;-81
2022/06/06 02:07:58;;;;;;;13.73;3.95;;;23.40;96.70;;;;;;5039720;28;20076;-80
2022/06/06 02:10:26;;;;;;;12.32;3.47;;;23.30;96.70;;;;;;5044579;28;20072;-80
2022/06/06 02:12:54;;;;;;;11.02;3.50;;;23.40;96.70;;;;;;5042014;28;20054;-80
2022/06/06 02:15:23;;;;;;;9.23;3.83;;;23.40;96.70;;;;;;5038853;28;20053;-80
2022/06/06 02:17:54;;;;;;;11.23;3.47;;;23.30;96.70;;;;;;5043778;28;20047;-81
2022/06/06 02:20:25;;;;;;;10.68;3.40;;;23.20;96.70;;;;;;5041377;28;20095;-81
2022/06/06 02:22:54;;;;;;;8.23;3.40;;;23.20;96.70;;;;;;5042125;28;20123;-81
2022/06/06 02:25:22;;;;;;;10.70;3.70;;;23.20;96.70;;;;;;5045112;28;20475;-81
2022/06/06 02:27:53;;;;;;;9.10;4.40;;;23.10;96.70;;;;;;5041031;28;20360;-81
2022/06/06 02:30:23;;;;;;;6.20;2.80;;;23.00;96.70;;;;;;5042444;28;20060;-81
2022/06/06 02:32:52;;;;;;;8.15;3.10;;;23.00;96.70;;;;;;5042026;28;20048;-81
2022/06/06 02:35:23;;;;;;;10.77;3.72;;;22.90;96.70;;;;;;5037685;28;20056;-81
2022/06/06 02:37:56;;;;;;;9.77;3.47;;;22.90;96.70;;;;;;5037424;28;20045;-80
2022/06/06 02:40:26;;;;;;;10.88;3.63;;;23.00;96.70;;;;;;5038219;28;20119;-81
2022/06/06 02:42:55;;;;;;;11.15;3.92;;;22.90;96.70;;;;;;5028941;28;20127;-81
2022/06/06 02:45:23;;;;;;;12.05;4.25;;;22.90;96.70;;;;;;5035753;28;20492;-80
2022/06/06 02:47:55;;;;;;;13.05;3.75;;;22.90;96.70;;;;;;5038082;28;20096;-81
2022/06/06 02:50:28;;;;;;;12.30;4.22;;;22.80;96.70;;;;;;5038756;28;20900;-81
2022/06/06 02:52:58;;;;;;;16.77;4.10;;;22.80;96.70;;;;;;5045312;28;20539;-80
2022/06/06 02:55:27;;;;;;;10.18;3.13;;;22.80;96.70;;;;;;5041428;28;20064;-80
2022/06/06 02:57:55;;;;;;;9.15;4.07;;;22.90;96.70;;;;;;5042447;28;20041;-81
2022/06/06 03:00:26;;;;;;;11.70;3.97;;;22.90;96.70;;;;;;5036527;28;20057;-80
2022/06/06 03:02:56;;;;;;;15.10;3.97;;;22.90;96.70;;;;;;5029194;28;20115;-79
2022/06/06 03:05:33;;;;;;;16.40;4.88;;;22.80;96.70;;;;;;5038225;28;20040;-81
2022/06/06 03:08:11;;;;;;;13.20;4.57;;;22.80;96.70;;;;;;5041867;28;20053;-80
2022/06/06 03:10:53;;;;;;;12.13;3.60;;;22.80;96.70;;;;;;5043738;28;20055;-80
2022/06/06 03:13:34;;;;;;;9.48;3.15;;;22.70;96.70;;;;;;5033098;28;20155;-81
2022/06/06 03:22:15;;;;;;;13.82;4.03;;;22.60;96.70;;;;;;5037581;28;20380;-78
2022/06/06 03:24:56;;;;;;;9.63;3.67;;;22.60;96.70;;;;;;5043358;28;20056;-79
2022/06/06 03:27:39;;;;;;;13.00;3.55;;;22.50;96.70;;;;;;5032380;28;20418;-79
2022/06/06 03:30:14;;;;;;;11.30;3.78;;;22.50;96.70;;;;;;5040354;28;20095;-79
2022/06/06 03:32:57;;;;;;;12.95;3.63;;;22.50;96.70;;;;;;5040707;28;20061;-79
2022/06/06 03:35:34;;;;;;;9.57;4.28;;;22.60;96.70;;;;;;5027838;28;20048;-80
2022/06/06 03:38:07;;;;;;;11.65;3.58;;;22.60;96.70;;;;;;5036157;28;20095;-79
2022/06/06 03:40:44;;;;;;;10.88;3.50;;;22.60;96.70;;;;;;5041766;28;20053;-79
2022/06/06 03:43:22;;;;;;;9.80;3.20;;;22.60;96.70;;;;;;5042509;28;20503;-79
2022/06/06 03:45:59;;;;;;;13.55;3.63;;;22.70;96.70;;;;;;5036143;28;20085;-80
2022/06/06 03:48:37;;;;;;;12.70;3.80;;;22.50;96.70;;;;;;5038951;28;20526;-79
2022/06/06 03:51:27;;;;;;;14.82;3.90;;;22.40;96.70;;;;;;5027358;28;20072;-79
2022/06/06 03:54:06;;;;;;;12.00;3.83;;;22.30;96.70;;;;;;5042722;28;21022;-79
2022/06/06 03:56:45;;;;;;;7.72;3.78;;;22.30;96.70;;;;;;5040884;28;20498;-80
2022/06/06 03:59:14;;;;;;;8.32;3.42;;;22.20;96.70;;;;;;5035633;28;20045;-79
2022/06/06 04:01:45;;;;;;;8.40;3.28;;;22.30;96.70;;;;;;5032317;28;20053;-80
2022/06/06 04:04:14;;;;;;;12.82;4.20;;;22.40;96.70;;;;;;5026861;28;20074;-80
2022/06/06 04:06:45;;;;;;;14.05;3.90;;;22.20;96.70;;;;;;5040609;28;20040;-80
2022/06/06 04:09:14;;;;;;;8.50;3.67;;;22.30;96.70;;;;;;5033273;28;20060;-80
2022/06/06 04:11:53;;;;;;;13.73;3.42;;;22.40;96.70;;;;;;5038770;28;20044;-81
2022/06/06 04:14:32;;;;;;;9.30;3.13;;;22.20;96.70;;;;;;5039945;28;20061;-80
2022/06/06 04:17:14;;;;;;;9.45;3.58;;;22.30;96.70;;;;;;5038040;28;20045;-80
2022/06/06 04:20:20;;;;;;;9.63;4.20;;;22.40;96.70;;;;;;5043985;28;20140;-79
2022/06/06 04:23:03;;;;;;;8.32;3.08;;;22.30;96.70;;;;;;5036102;28;20049;-80
2022/06/06 04:25:47;;;;;;;10.23;3.47;;;22.20;96.70;;;;;;5036462;28;20077;-80
2022/06/06 04:28:21;;;;;;;9.02;3.17;;;22.30;96.70;;;;;;5040255;28;20055;-79
2022/06/06 04:31:01;;;;;;;10.15;3.40;;;22.50;96.70;;;;;;5040950;28;20502;-80
2022/06/06 04:33:38;;;;;;;10.68;3.15;;;22.40;96.70;;;;;;5042535;28;20044;-80
2022/06/06 04:36:13;;;;;;;9.63;2.97;;;22.50;96.70;;;;;;5032170;28;20084;-80
2022/06/06 04:38:52;;;;;;;10.75;3.47;;;22.60;96.70;;;;;;5034253;28;20096;-80
2022/06/06 04:41:33;;;;;;;12.05;2.75;;;22.60;96.70;;;;;;5039582;28;20045;-80
2022/06/06 04:44:12;;;;;;;9.05;3.53;;;22.70;96.70;;;;;;5035750;28;20037;-80
2022/06/06 04:46:49;;;;;;;12.38;3.17;;;22.70;96.70;;;;;;5042479;28;20041;-79
2022/06/06 04:49:17;;;;;;;14.00;3.50;;;22.70;96.70;;;;;;5041125;28;20103;-79
2022/06/06 04:51:47;;;;;;;11.55;3.88;;;22.70;96.70;;;;;;5040673;28;20044;-80
2022/06/06 04:54:21;;;;;;;8.73;3.78;;;22.50;96.70;;;;;;5030435;28;20060;-81
2022/06/06 04:56:54;;;;;;;12.75;4.32;;;22.40;96.70;;;;;;5031006;28;20056;-81
2022/06/06 04:59:24;;;;;;;13.70;4.30;;;22.60;96.70;;;;;;5042689;28;20503;-81
2022/06/06 05:01:54;;;;;;;8.65;3.55;;;22.70;96.70;;;;;;5043715;28;20057;-81
2022/06/06 05:04:22;;;;;;;8.52;3.97;;;22.80;96.70;;;;;;5045088;28;20462;-81
2022/06/06 05:07:25;;;;;;;14.02;3.83;;;22.80;96.70;;;;;;5042026;28;20905;-81
2022/06/06 05:10:13;;;;;;;8.23;3.80;;;22.80;96.70;;;;;;5041315;28;20049;-80
2022/06/06 05:13:10;;;;;;;7.43;4.05;;;22.90;96.70;;;;;;5042093;28;20099;-81
2022/06/06 05:15:49;;;;;;;13.40;4.60;;;22.90;96.70;;;;;;5045617;28;20059;-80
2022/06/06 05:18:51;;;;;;;12.77;4.53;;;22.90;96.70;;;;;;5059123;28;20630;-81
2022/06/06 05:21:32;;;;;;;9.38;3.28;;;23.00;96.70;;;;;;5039144;28;20047;-80
2022/06/06 05:24:37;;;;;;;11.50;4.35;;;23.10;96.70;;;;;;5043518;28;20074;-81
2022/06/06 05:27:45;;;;;;;10.95;4.45;;;23.10;96.70;;;;;;5032808;28;20033;-81
2022/06/06 05:30:18;;;;;;;14.87;5.87;;;23.20;96.70;;;;;;5038429;28;20037;-81
2022/06/06 05:33:03;;;;;;;13.18;4.80;;;23.20;96.70;;;;;;5038805;28;20083;-81
2022/06/06 05:36:12;;;;;;;14.60;4.97;;;23.20;96.70;;;;;;5055560;28;20058;-81
2022/06/06 05:38:54;;;;;;;12.68;5.20;;;23.20;96.70;;;;;;5044859;28;20056;-80
2022/06/06 05:41:30;;;;;;;13.95;5.10;;;23.40;96.70;;;;;;5037598;28;20507;-81
2022/06/06 05:44:12;;;;;;;15.07;5.00;;;23.60;96.70;;;;;;5043483;28;20126;-81
2022/06/06 05:46:49;;;;;;;13.60;4.80;;;23.60;96.70;;;;;;5043306;28;20045;-81
2022/06/06 05:49:46;;;;;;;14.50;5.75;;;23.60;96.70;;;;;;5038134;28;20235;-82
2022/06/06 05:52:31;;;;;;;13.90;4.60;;;23.70;96.70;;;;;;5038715;28;20045;-81
2022/06/06 05:55:17;;;;;;;15.50;4.50;;;23.90;96.70;;;;;;5041485;28;20041;-81
2022/06/06 05:58:07;;;;;;;12.90;4.13;;;23.90;96.70;;;;;;5040572;28;20049;-81
2022/06/06 06:00:48;;;;;;;12.38;3.95;;;23.90;96.70;;;;;;5043393;28;20054;-81
2022/06/06 06:03:40;;;;;;;16.33;4.25;;;24.00;96.70;;;;;;5042219;28;20132;-81
2022/06/06 06:06:18;;;;;;;9.05;3.85;;;24.10;96.70;;;;;;5044851;28;20415;-82
2022/06/06 06:09:16;;;;;;;8.80;3.92;;;24.00;96.70;;;;;;5029973;28;20289;-81
2022/06/06 06:12:02;;;;;;;15.20;4.60;;;24.00;96.70;;;;;;5036127;28;20076;-82
2022/06/06 06:14:47;;;;;;;16.70;4.85;;;24.20;96.70;;;;;;5043669;28;20574;-81
2022/06/06 06:17:21;;;;;;;13.73;4.80;;;24.30;96.70;;;;;;5041808;28;20052;-82
2022/06/06 06:19:58;;;;;;;17.15;5.20;;;24.50;96.70;;;;;;5047845;28;20049;-82
2022/06/06 06:22:30;;;;;;;10.68;4.30;;;24.50;96.70;;;;;;5041195;28;20564;-81
2022/06/06 06:25:02;;;;;;;13.50;4.75;;;24.60;96.70;;;;;;5042025;28;20045;-82
2022/06/06 06:27:33;;;;;;;12.38;4.18;;;24.50;96.70;;;;;;5045845;28;20063;-81
2022/06/06 06:30:02;;;;;;;15.82;4.13;;;24.50;96.70;;;;;;5045777;28;20049;-82
2022/06/06 06:32:51;;;;;;;12.73;4.20;;;24.70;96.70;;;;;;5030227;28;20055;-82
2022/06/06 06:35:26;;;;;;;15.95;4.82;;;24.90;96.70;;;;;;5027775;28;20099;-81
2022/06/06 06:38:18;;;;;;;18.05;4.68;;;25.10;96.70;;;;;;5027453;28;20069;-81
2022/06/06 06:40:52;;;;;;;11.35;4.20;;;25.10;96.70;;;;;;5051042;28;20049;-82
2022/06/06 06:43:32;;;;;;;12.98;4.25;;;25.00;96.70;;;;;;5041231;28;20075;-83
2022/06/06 06:46:07;;;;;;;16.08;4.78;;;25.00;96.70;;;;;;5026905;28;20611;-82
2022/06/06 06:48:38;;;;;;;12.30;5.03;;;25.00;96.70;;;;;;5027102;28;20057;-81
2022/06/06 06:51:11;;;;;;;14.48;3.92;;;25.20;96.70;;;;;;5044409;28;20110;-82
2022/06/06 06:54:07;;;;;;;10.73;4.15;;;25.30;96.70;;;;;;5040253;28;20045;-82
2022/06/06 06:56:54;;;;;;;11.75;4.13;;;25.50;96.70;;;;;;5041109;28;20118;-82
2022/06/06 06:59:30;;;;;;;15.90;4.05;;;25.60;96.70;;;;;;5039489;28;20534;-82
2022/06/06 07:11:12;;;;;;;14.15;4.60;;;26.00;96.70;;;;;;5057751;28;20087;-81
2022/06/06 07:14:00;;;;;;;12.63;4.30;;;26.10;96.70;;;;;;5043960;28;20556;-82
2022/06/06 07:16:29;;;;;;;13.95;5.38;;;26.10;96.70;;;;;;5040184;28;20120;-83
2022/06/06 07:19:02;;;;;;;12.88;4.43;;;26.20;96.70;;;;;;5019453;28;20048;-87
2022/06/06 07:21:34;;;;;;;11.50;5.13;;;26.30;96.70;;;;;;5045101;28;20570;-86
2022/06/06 07:24:05;;;;;;;16.33;5.05;;;26.30;96.70;;;;;;5042817;28;20053;-80
2022/06/06 07:26:37;;;;;;;15.02;5.38;;;26.30;96.70;;;;;;5044960;28;20048;-81
2022/06/06 07:29:06;;;;;;;12.75;4.57;;;26.30;96.70;;;;;;5041479;28;20096;-81
2022/06/06 07:31:51;;;;;;;12.70;4.72;;;26.30;96.70;;;;;;5038556;28;20132;-81
2022/06/06 07:34:31;;;;;;;12.98;4.72;;;26.20;96.70;;;;;;5043981;28;20056;-86
2022/06/06 07:37:09;;;;;;;20.13;5.53;;;26.30;96.70;;;;;;5028631;28;20075;-82
2022/06/06 07:39:54;;;;;;;15.80;4.73;;;26.30;96.70;;;;;;5048200;28;20042;-83
2022/06/06 07:42:50;;;;;;;12.63;4.18;;;26.30;96.70;;;;;;5044943;28;20076;-81
2022/06/06 07:45:26;;;;;;;13.45;5.32;;;26.50;96.70;;;;;;5025079;28;20055;-82
2022/06/06 07:48:03;;;;;;;;;;;26.60;96.70;;;;;;5044684;28;20073;-83
2022/06/06 07:50:37;;;;;;;13.40;5.03;;;26.70;96.70;;;;;;5049516;28;19924;-89
2022/06/06 07:53:13;;;;;;;11.63;4.65;;;26.50;96.70;;;;;;5043156;28;20504;-88
2022/06/06 07:55:49;;;;;;;12.15;4.68;;;26.40;96.70;;;;;;5052038;28;20100;-91
2022/06/06 07:58:23;;;;;;;13.13;4.53;;;26.50;96.70;;;;;;5045989;28;20041;-91
2022/06/06 08:01:04;;;;;;;14.15;5.30;;;26.70;96.70;;;;;;5048298;28;20335;-89
2022/06/06 08:03:41;;;;;;;17.67;5.03;;;26.90;96.70;;;;;;5049468;28;20566;-90
2022/06/06 08:06:23;;;;;;;13.32;5.07;;;26.90;96.70;;;;;;5050029;28;20045;-90
2022/06/06 08:09:13;;;;;;;16.98;5.00;;;27.10;96.70;;;;;;5046470;28;20271;-89
2022/06/06 08:11:57;;;;;;;15.77;6.90;;;27.20;96.70;;;;;;5034315;28;20387;-84
2022/06/06 08:14:39;;;;;;;18.77;6.53;;;27.10;96.70;;;;;;5024080;28;20049;-82
2022/06/06 08:17:22;;;;;;;16.13;5.90;;;26.80;96.70;;;;;;5043755;28;20120;-82
2022/06/06 08:20:02;;;;;;;12.77;5.60;;;26.60;96.70;;;;;;5038882;28;20094;-82
2022/06/06 08:22:32;;;;;;;16.25;5.78;;;26.60;96.70;;;;;;5035126;28;20037;-83
2022/06/06 08:25:05;;;;;;;14.57;6.25;;;26.60;96.70;;;;;;5036022;28;20128;-83
2022/06/06 08:27:34;;;;;;;12.55;5.85;;;26.70;96.70;;;;;;5030900;28;20118;-82
2022/06/06 08:30:03;;;;;;;12.48;5.50;;;26.80;96.70;;;;;;5035609;28;20419;-81
2022/06/06 08:32:32;;;;;;;12.75;5.50;;;26.90;96.70;;;;;;5038397;28;20064;-79
2022/06/06 08:35:00;;;;;;;14.82;5.35;;;27.10;96.70;;;;;;5030424;28;20067;-82
2022/06/06 08:37:53;;;;;;;16.27;5.57;;;27.30;96.70;;;;;;5040233;28;20048;-81
2022/06/06 08:41:05;;;;;;;13.57;5.47;;;27.60;96.70;;;;;;5039067;28;20045;-81
2022/06/06 08:43:59;;;;;;;13.05;6.07;;;27.60;96.70;;;;;;4991871;28;20061;-81
2022/06/06 08:46:42;;;;;;;14.88;7.07;;;27.90;96.70;;;;;;5044553;28;20096;-82
2022/06/06 08:52:36;;;;;;;12.65;5.88;;;28.10;96.70;;;;;;5050975;28;20049;-83
2022/06/06 08:55:27;;;;;;;13.15;6.05;;;27.90;96.70;;;;;;5045281;28;20074;-82
2022/06/06 08:58:15;;;;;;;11.07;5.20;;;27.80;96.70;;;;;;5036320;28;20060;-82
2022/06/06 09:00:51;;;;;;;13.13;5.13;;;27.80;96.70;;;;;;5035213;28;20045;-83
2022/06/06 09:03:59;;;;;;;9.93;4.88;;;27.80;96.70;;;;;;5039732;28;20465;-83
2022/06/06 09:07:04;;;;;;;11.15;5.00;;;27.90;96.70;;;;;;5033931;28;20245;-82
2022/06/06 09:10:07;;;;;;;10.93;4.18;;;27.90;96.70;;;;;;5031566;28;20046;-83
2022/06/06 09:13:21;;;;;;;13.27;5.05;;;27.60;96.70;;;;;;5041423;28;20111;-82
2022/06/06 09:16:34;;;;;;;8.57;4.22;;;27.80;96.70;;;;;;5055091;28;20056;-80
2022/06/06 09:19:41;;;;;;;13.73;4.32;;;28.20;96.70;;;;;;5040137;28;20042;-83
2022/06/06 09:22:42;;;;;;;10.43;4.40;;;28.30;96.70;;;;;;5029847;28;20148;-83
2022/06/06 09:25:33;;;;;;;11.00;4.25;;;28.20;96.70;;;;;;5034739;28;20049;-83
2022/06/06 09:28:56;;;;;;;10.88;3.95;;;28.00;96.70;;;;;;5041107;28;20087;-81
2022/06/06 09:32:02;;;;;;;10.43;3.38;;;27.80;96.70;;;;;;5034301;28;20597;-82
2022/06/06 09:35:10;;;;;;;10.10;4.35;;;27.60;96.70;;;;;;5048223;28;20053;-82
2022/06/06 09:38:06;;;;;;;9.43;4.22;;;27.50;96.70;;;;;;5041964;28;20052;-79
2022/06/06 09:40:42;;;;;;;12.97;4.43;;;27.40;96.70;;;;;;5019915;28;20068;-90
2022/06/06 09:43:40;;;;;;;8.95;3.80;;;27.50;96.70;;;;;;5031533;28;20045;-87
2022/06/06 09:46:53;;;;;;;8.25;3.60;;;27.60;96.70;;;;;;5049591;28;20049;-85
2022/06/06 09:50:10;;;;;;;9.23;3.40;;;27.80;96.70;;;;;;5047746;28;20430;-86
2022/06/06 09:53:15;;;;;;;11.30;3.85;;;28.00;96.70;;;;;;5054578;28;20131;-87
2022/06/06 10:00:01;;;;;;;8.23;4.15;;;27.70;96.70;;;;;;5031478;28;20041;-93
2022/06/06 10:06:09;;;;;;;12.20;4.30;;;27.60;96.70;;;;;;5127487;27;20386;-88
2022/06/06 10:09:17;;;;;;;12.55;4.00;;;27.40;96.70;;;;;;5092163;28;20391;-87
2022/06/06 10:12:28;;;;;;;7.22;3.40;;;27.50;96.70;;;;;;5111919;28;20481;-90
2022/06/06 10:15:15;;;;;;;10.13;3.67;;;27.60;96.70;;;;;;5117932;28;20085;-88
2022/06/06 10:18:03;;;;;;;9.27;4.00;;;27.90;96.70;;;;;;5104953;28;20070;-85
2022/06/06 10:20:47;;;;;;;9.65;4.28;;;28.00;96.70;;;;;;5117085;27;20039;-84
2022/06/06 10:23:54;;;;;;;9.75;3.60;;;28.00;96.70;;;;;;5120127;28;20048;-81
2022/06/06 10:26:41;;;;;;;13.43;4.00;;;28.10;96.70;;;;;;5111454;28;20475;-84
2022/06/06 10:30:10;;;;;;;8.88;3.80;;;28.10;96.70;;;;;;5122964;27;20807;-83
2022/06/06 10:33:06;;;;;;;13.70;4.40;;;28.20;96.70;;;;;;5116974;27;20043;-84
2022/06/06 10:35:55;;;;;;;12.43;4.63;;;28.40;96.70;;;;;;5118227;28;20047;-84
2022/06/06 10:38:51;;;;;;;11.48;3.97;;;28.40;96.70;;;;;;5097492;28;20058;-82
2022/06/06 10:44:43;;;;;;;;;;;28.60;96.70;;;;;;5011186;28;20076;-83
2022/06/06 10:47:30;;;;;;;12.65;3.70;;;28.80;96.70;;;;;;5014745;28;19932;-86
2022/06/06 10:50:03;;;;;;;9.60;3.60;;;29.00;96.70;;;;;;5001079;28;20133;-85
2022/06/06 10:53:01;;;;;;;7.35;3.30;;;29.20;96.70;;;;;;5004349;28;20042;-84
2022/06/06 10:56:08;;;;;;;9.75;3.50;;;29.40;96.70;;;;;;4945249;28;20050;-84
2022/06/06 10:59:26;;;;;;;11.65;3.90;;;29.60;96.70;;;;;;5000494;28;20085;-84
2022/06/06 11:02:39;;;;;;;7.97;3.50;;;29.50;96.70;;;;;;5001227;28;20042;-85
2022/06/06 11:05:36;;;;;;;11.52;3.88;;;29.30;96.70;;;;;;4997855;28;20128;-82
2022/06/06 11:08:39;;;;;;;7.50;3.45;;;29.10;96.70;;;;;;4999145;28;20073;-84
2022/06/06 11:11:31;;;;;;;9.30;2.53;;;29.40;96.70;;;;;;5004497;28;20168;-85
2022/06/06 11:14:07;;;;;;;8.52;3.17;;;29.60;96.70;;;;;;5000550;28;20042;-85
2022/06/06 11:17:14;;;;;;;7.68;3.22;;;29.50;96.70;;;;;;4991532;28;20046;-85
2022/06/06 11:20:13;;;;;;;8.67;3.50;;;29.50;96.70;;;;;;4988017;28;20050;-86
2022/06/06 11:22:43;;;;;;;8.05;3.58;;;29.60;96.70;;;;;;4971514;28;20530;-85
2022/06/06 11:25:13;;;;;;;10.40;3.50;;;29.60;96.70;;;;;;4990081;28;20054;-83
2022/06/06 11:28:31;;;;;;;6.95;3.38;;;29.70;96.70;;;;;;4994937;28;20125;-84
2022/06/06 11:31:39;;;;;;;7.95;3.63;;;29.80;96.70;;;;;;4993708;28;20125;-85
2022/06/06 11:34:47;;;;;;;10.10;3.72;;;29.70;96.70;;;;;;4985174;28;20312;-85
2022/06/06 11:37:52;;;;;;;10.60;4.00;;;29.90;96.70;;;;;;4987726;28;20054;-83
2022/06/06 11:40:49;;;;;;;9.80;3.63;;;30.00;96.70;;;;;;4951150;28;20413;-84
2022/06/06 11:43:36;;;;;;;;;;;30.20;96.70;;;;;;4990678;28;20111;-84
2022/06/06 11:46:33;;;;;;;9.15;3.65;;;30.30;96.70;;;;;;5029441;28;19929;-84
2022/06/06 11:49:36;;;;;;;8.55;3.20;;;30.20;96.70;;;;;;4999198;28;20076;-84
2022/06/06 11:52:46;;;;;;;6.50;2.88;;;30.20;96.70;;;;;;4982759;28;20108;-82
2022/06/06 11:55:43;;;;;;;7.82;3.30;;;30.00;96.70;;;;;;5043344;28;20142;-84
2022/06/06 11:58:47;;;;;;;9.93;3.35;;;30.30;96.70;;;;;;5004974;28;20078;-84
2022/06/06 12:01:47;;;;;;;8.55;2.97;;;30.40;96.70;;;;;;5031990;28;20082;-86
2022/06/06 12:04:56;;;;;;;10.20;3.00;;;30.60;96.70;;;;;;5031497;28;20470;-86
2022/06/06 12:07:42;;;;;;;9.27;3.42;;;30.60;96.70;;;;;;5015460;28;20148;-83
2022/06/06 12:10:16;;;;;;;8.98;2.70;;;30.80;96.70;;;;;;5024889;28;20046;-81
2022/06/06 12:13:28;;;;;;;8.30;3.20;;;30.60;96.70;;;;;;5022888;28;20419;-81
2022/06/06 12:16:15;;;;;;;8.52;3.17;;;30.70;96.70;;;;;;5028343;28;20050;-81
2022/06/06 12:19:02;;;;;;;8.68;3.78;;;31.00;96.70;;;;;;5025369;28;20075;-81
2022/06/06 12:21:52;;;;;;;10.48;3.35;;;31.00;96.70;;;;;;5022786;28;20057;-82
2022/06/06 12:24:51;;;;;;;8.25;3.20;;;31.30;96.70;;;;;;5026379;28;20578;-82
2022/06/06 12:27:31;;;;;;;9.02;3.05;;;31.50;96.70;;;;;;5023324;28;20046;-81
2022/06/06 12:30:18;;;;;;;9.82;3.60;;;31.20;96.70;;;;;;5026054;28;20470;-82
2022/06/06 12:32:55;;;;;;;10.50;3.15;;;31.10;96.70;;;;;;5023623;28;20045;-82
2022/06/06 12:35:32;;;;;;;7.50;3.00;;;31.20;96.70;;;;;;5024120;28;20501;-82
2022/06/06 12:38:11;;;;;;;5.82;3.03;;;31.10;96.70;;;;;;5018503;28;20037;-80
2022/06/06 12:40:53;;;;;;;7.57;3.13;;;31.00;96.70;;;;;;5010115;28;20061;-81
2022/06/06 12:43:32;;;;;;;11.20;3.75;;;31.00;96.70;;;;;;5008095;28;20168;-82
2022/06/06 12:46:23;;;;;;;8.30;3.63;;;31.20;96.70;;;;;;5024815;28;20448;-80
2022/06/06 12:49:13;;;;;;;10.70;3.70;;;31.30;96.70;;;;;;5028473;28;20102;-81
2022/06/06 12:52:07;;;;;;;8.70;3.30;;;31.70;96.70;;;;;;5029774;28;20493;-81
2022/06/06 12:57:45;;;;;;;6.88;3.25;;;31.40;96.70;;;;;;5026119;28;20072;-81
2022/06/06 13:00:14;;;;;;;7.18;2.92;;;31.50;96.70;;;;;;5023131;28;20056;-85
2022/06/06 13:03:02;;;;;;;7.00;3.15;;;31.20;96.70;;;;;;5038596;28;20128;-83
2022/06/06 13:05:41;;;;;;;10.93;3.92;;;31.00;96.70;;;;;;5009149;28;20422;-85
2022/06/06 13:08:39;;;;;;;12.30;3.92;;;31.10;96.70;;;;;;5028739;28;20095;-84
2022/06/06 13:11:35;;;;;;;11.10;3.10;;;30.70;96.70;;;;;;5016501;28;20079;-83
2022/06/06 13:14:09;;;;;;;;;;;30.50;96.70;;;;;;5025744;28;20049;-83
2022/06/06 13:16:57;;;;;;;10.50;3.30;;;30.30;96.70;;;;;;5032838;28;19925;-82
2022/06/06 13:19:45;;;;;;;10.10;4.20;;;30.10;96.70;;;;;;5025055;28;20053;-83
2022/06/06 13:22:44;;;;;;;14.15;4.25;;;29.90;96.70;;;;;;5024931;28;20095;-82
2022/06/06 13:25:31;;;;;;;9.65;3.47;;;29.90;96.70;;;;;;5022643;28;20053;-80
2022/06/06 13:28:01;;;;;;;10.32;3.30;;;30.20;96.70;;;;;;5027116;28;20124;-82
2022/06/06 13:30:37;;;;;;;10.90;3.78;;;30.70;96.70;;;;;;5024330;28;20124;-82
2022/06/06 13:33:34;;;;;;;9.20;3.10;;;31.20;96.70;;;;;;5025897;28;20498;-82
2022/06/06 13:36:11;;;;;;;8.90;2.85;;;31.50;96.70;;;;;;5026128;28;20537;-82
2022/06/06 13:38:57;;;;;;;7.13;3.15;;;31.50;96.70;;;;;;5023672;28;20072;-83
2022/06/06 13:41:39;;;;;;;7.03;2.95;;;31.70;96.70;;;;;;5043760;28;20052;-84
2022/06/06 13:44:31;;;;;;;6.40;2.95;;;31.70;96.70;;;;;;5037074;28;20100;-83
2022/06/06 13:47:07;;;;;;;13.35;3.28;;;31.40;96.70;;;;;;5023746;28;20497;-84
2022/06/06 13:49:53;;;;;;;10.70;3.33;;;31.30;96.70;;;;;;5022589;28;20080;-84
2022/06/06 13:52:39;;;;;;;10.52;3.47;;;31.00;96.70;;;;;;5025029;28;20360;-84
2022/06/06 13:55:26;;;;;;;10.30;3.33;;;30.80;96.70;;;;;;5034167;28;20057;-84
2022/06/06 13:57:59;;;;;;;;;;;30.50;96.70;;;;;;5021880;28;20064;-83
2022/06/06 14:00:33;;;;;;;8.35;2.95;;;30.60;96.70;;;;;;5038453;28;19925;-83
2022/06/06 14:03:28;;;;;;;9.07;3.08;;;30.70;96.70;;;;;;5036405;28;20501;-84
2022/06/06 14:06:23;;;;;;;13.25;3.47;;;30.90;96.70;;;;;;5026133;28;20064;-83
2022/06/06 14:08:55;;;;;;;9.70;3.70;;;31.30;96.70;;;;;;5017875;28;20492;-84
2022/06/06 14:11:47;;;;;;;10.50;3.63;;;31.90;96.70;;;;;;5009143;28;20460;-84
2022/06/06 14:14:17;;;;;;;9.00;3.38;;;32.10;96.70;;;;;;5039083;28;20069;-84
2022/06/06 14:17:07;;;;;;;8.80;3.25;;;32.10;96.70;;;;;;5023050;28;20066;-84
2022/06/06 14:19:52;;;;;;;9.85;3.58;;;32.50;96.70;;;;;;5026691;28;20125;-83
2022/06/06 14:22:28;;;;;;;8.63;3.22;;;32.60;96.70;;;;;;5017884;28;20127;-82
2022/06/06 14:25:00;;;;;;;;;;;32.60;96.70;;;;;;5011537;28;20506;-83
2022/06/06 14:27:29;;;;;;;9.57;3.60;;;32.80;96.70;;;;;;5024986;28;20293;-82
2022/06/06 14:29:59;;;;;;;9.45;3.70;;;32.90;96.70;;;;;;5025528;28;20603;-83
2022/06/06 14:32:30;;;;;;;12.50;3.78;;;32.50;96.70;;;;;;5023310;28;20569;-83